createdAt,value
2019-05-10T00:00:35.933Z,99740.54
2019-05-10T00:03:25.774Z,99733.18
2019-05-10T00:06:16.229Z,99728.94
2019-05-10T00:08:47.327Z,99726.61
2019-05-10T00:11:33.778Z,99725.30
2019-05-10T00:14:24.153Z,99725.88
2019-05-10T00:16:57.828Z,99727.09
2019-05-10T00:19:29.647Z,99726.82
2019-05-10T00:22:01.197Z,99721.33
2019-05-10T00:24:33.020Z,99719.95
2019-05-10T00:27:05.031Z,99729.67
2019-05-10T00:29:36.828Z,99719.54
2019-05-10T00:32:08.626Z,99717.58
2019-05-10T00:34:40.356Z,99721.06
2019-05-10T00:37:12.084Z,99716.45
2019-05-10T00:39:44.584Z,99718.15
2019-05-10T00:42:16.220Z,99720.22
2019-05-10T00:44:47.951Z,99730.53
2019-05-10T00:47:19.673Z,99724.28
2019-05-10T00:49:51.505Z,99729.20
2019-05-10T00:52:23.242Z,99735.73
2019-05-10T00:54:54.965Z,99727.03
2019-05-10T00:57:26.796Z,99733.84
2019-05-10T00:59:58.528Z,99715.34
2019-05-10T01:02:30.270Z,99721.21
2019-05-10T01:05:01.997Z,99722.73
2019-05-10T01:07:33.849Z,99720.35
2019-05-10T01:10:07.795Z,99723.47
2019-05-10T01:12:39.345Z,99724.05
2019-05-10T01:15:12.117Z,99731.41
2019-05-10T01:17:43.953Z,99724.05
2019-05-10T01:20:15.759Z,99721.95
2019-05-10T01:22:47.383Z,99725.94
2019-05-10T01:25:33.924Z,99734.50
2019-05-10T01:27:53.046Z,99736.88
2019-05-10T01:30:24.876Z,99744.52
2019-05-10T01:32:56.775Z,99743.66
2019-05-10T01:35:28.701Z,99744.61
2019-05-10T01:38:02.277Z,99744.61
2019-05-10T01:40:34.008Z,99743.29
2019-05-10T01:43:06.136Z,99737.25
2019-05-10T01:45:37.859Z,99738.67
2019-05-10T01:48:10.987Z,99739.89
2019-05-10T01:50:43.753Z,99742.64
2019-05-10T01:53:15.587Z,99750.84
2019-05-10T01:55:52.315Z,99745.38
2019-05-10T01:58:20.920Z,99744.22
2019-05-10T02:00:52.751Z,99744.04
2019-05-10T02:03:24.483Z,99744.43
2019-05-10T02:05:56.215Z,99753.28
2019-05-10T02:08:27.950Z,99748.73
2019-05-10T02:11:00.359Z,99749.86
2019-05-10T02:13:32.086Z,99751.75
2019-05-10T02:16:03.916Z,99759.01
2019-05-10T02:18:35.641Z,99761.65
2019-05-10T02:21:07.396Z,99759.70
2019-05-10T02:23:39.125Z,99768.38
2019-05-10T02:26:10.925Z,99773.16
2019-05-10T02:28:42.659Z,99772.00
2019-05-10T02:31:14.398Z,99774.45
2019-05-10T02:33:46.125Z,99776.62
2019-05-10T02:36:17.962Z,99772.47
2019-05-10T02:38:49.685Z,99776.06
2019-05-10T02:41:21.414Z,99779.20
2019-05-10T02:43:53.249Z,99782.88
2019-05-10T02:46:25.063Z,99786.02
2019-05-10T02:48:56.685Z,99787.91
2019-05-10T02:51:28.786Z,99789.72
2019-05-10T02:54:01.149Z,99785.09
2019-05-10T02:56:33.818Z,99787.83
2019-05-10T02:59:06.780Z,99787.63
2019-05-10T03:01:44.594Z,99793.28
2019-05-10T03:04:16.586Z,99795.27
2019-05-10T03:06:51.257Z,99795.09
2019-05-10T03:09:27.768Z,99797.08
2019-05-10T03:12:08.180Z,99798.20
2019-05-10T03:14:42.727Z,99799.81
2019-05-10T03:17:16.205Z,99805.00
2019-05-10T03:19:53.626Z,99804.46
2019-05-10T03:22:26.494Z,99804.64
2019-05-10T03:24:58.237Z,99807.86
2019-05-10T03:27:29.957Z,99816.06
2019-05-10T03:30:01.780Z,99811.63
2019-05-10T03:32:33.502Z,99815.28
2019-05-10T03:35:07.637Z,99815.95
2019-05-10T03:37:39.734Z,99819.38
2019-05-10T03:40:11.841Z,99825.22
2019-05-10T03:42:43.562Z,99822.50
2019-05-10T03:45:15.522Z,99815.89
2019-05-10T03:47:48.662Z,99821.58
2019-05-10T03:50:20.390Z,99820.61
2019-05-10T03:52:52.785Z,99819.58
2019-05-10T03:55:24.524Z,99818.44
2019-05-10T03:57:56.260Z,99824.20
2019-05-10T04:00:28.468Z,99826.76
2019-05-10T04:03:00.104Z,99821.88
2019-05-10T04:05:31.835Z,99827.83
2019-05-10T04:08:04.451Z,99829.69
2019-05-10T04:10:35.973Z,99833.37
2019-05-10T04:13:07.798Z,99829.56
2019-05-10T04:15:39.589Z,99830.69
2019-05-10T04:18:11.337Z,99828.78
2019-05-10T04:20:43.069Z,99832.44
2019-05-10T04:23:15.276Z,99843.49
2019-05-10T04:25:46.903Z,99836.58
2019-05-10T04:28:18.642Z,99844.02
2019-05-10T04:30:50.370Z,99833.73
2019-05-10T04:33:22.095Z,99844.34
2019-05-10T04:35:53.630Z,99845.00
2019-05-10T04:38:25.366Z,99849.34
2019-05-10T04:40:59.181Z,99844.00
2019-05-10T04:43:32.699Z,99848.50
2019-05-10T04:46:04.959Z,99854.92
2019-05-10T04:48:36.716Z,99853.13
2019-05-10T04:51:08.456Z,99857.03
2019-05-10T04:53:40.193Z,99865.73
2019-05-10T04:56:12.016Z,99875.50
2019-05-10T04:58:43.733Z,99876.12
2019-05-10T05:01:16.985Z,99876.34
2019-05-10T05:03:48.822Z,99868.48
2019-05-10T05:06:20.555Z,99876.67
2019-05-10T05:08:53.134Z,99879.87
2019-05-10T05:11:24.655Z,99876.56
2019-05-10T05:13:56.412Z,99881.56
2019-05-10T05:16:28.137Z,99883.76
2019-05-10T05:18:59.997Z,99888.45
2019-05-10T05:21:31.727Z,99889.67
2019-05-10T05:24:03.475Z,99890.77
2019-05-10T05:26:35.198Z,99896.10
2019-05-10T05:29:06.942Z,99887.47
2019-05-10T05:31:38.777Z,99886.20
2019-05-10T05:34:10.503Z,99892.30
2019-05-10T05:36:42.375Z,99895.51
2019-05-10T05:39:14.014Z,99897.03
2019-05-10T05:41:51.648Z,99905.30
2019-05-10T05:44:20.312Z,99898.75
2019-05-10T05:46:52.405Z,99903.25
2019-05-10T05:49:25.000Z,99909.64
2019-05-10T05:51:56.831Z,99905.48
2019-05-10T05:54:28.557Z,99908.41
2019-05-10T05:57:00.297Z,99908.05
2019-05-10T05:59:32.039Z,99909.30
2019-05-10T06:02:07.478Z,99908.53
2019-05-10T06:04:40.791Z,99910.88
2019-05-10T06:07:10.688Z,99917.11
2019-05-10T06:09:42.552Z,99915.11
2019-05-10T06:12:14.965Z,99921.77
2019-05-10T06:14:49.730Z,99925.33
2019-05-10T06:17:23.769Z,99922.42
2019-05-10T06:19:53.534Z,99928.74
2019-05-10T06:22:26.239Z,99925.68
2019-05-10T06:24:58.002Z,99924.22
2019-05-10T06:27:35.250Z,99926.61
2019-05-10T06:30:06.294Z,99924.73
2019-05-10T06:32:38.124Z,99924.23
2019-05-10T06:35:14.088Z,99925.98
2019-05-10T06:37:44.415Z,99927.63
2019-05-10T06:40:16.542Z,99930.48
2019-05-10T06:42:48.275Z,99931.41
2019-05-10T06:45:20.015Z,99932.91
2019-05-10T06:47:53.414Z,99932.21
2019-05-10T06:50:30.143Z,99926.83
2019-05-10T06:53:00.675Z,99935.73
2019-05-10T06:55:32.613Z,99937.12
2019-05-10T06:58:04.358Z,99933.81
2019-05-10T07:00:38.050Z,99934.06
2019-05-10T07:03:09.444Z,99932.47
2019-05-10T07:05:41.182Z,99932.14
2019-05-10T07:08:17.535Z,99933.90
2019-05-10T07:10:46.459Z,99932.50
2019-05-10T07:13:18.299Z,99933.04
2019-05-10T07:15:50.041Z,99942.46
2019-05-10T07:18:24.283Z,99945.80
2019-05-10T07:21:00.911Z,99945.34
2019-05-10T07:23:30.314Z,99950.34
2019-05-10T07:26:02.276Z,99947.17
2019-05-10T07:28:34.083Z,99947.34
2019-05-10T07:31:05.832Z,99960.99
2019-05-10T07:33:40.180Z,99957.00
2019-05-10T07:36:20.249Z,99955.13
2019-05-10T07:38:53.768Z,99958.32
2019-05-10T07:41:29.164Z,99964.16
2019-05-10T07:44:08.198Z,99959.24
2019-05-10T07:46:39.874Z,99959.77
2019-05-10T07:49:23.665Z,99962.36
2019-05-10T07:51:45.274Z,99956.13
2019-05-10T07:54:17.181Z,99963.95
2019-05-10T07:56:49.990Z,99966.20
2019-05-10T07:59:27.985Z,99973.33
2019-05-10T08:01:55.802Z,99977.81
2019-05-10T08:04:31.839Z,99976.42
2019-05-10T08:07:02.247Z,99976.25
2019-05-10T08:09:41.796Z,99981.64
2019-05-10T08:12:12.912Z,99983.43
2019-05-10T08:14:44.466Z,99986.61
2019-05-10T08:17:19.218Z,99986.47
2019-05-10T08:19:51.837Z,99980.89
2019-05-10T08:22:24.239Z,99987.02
2019-05-10T08:24:56.536Z,99990.35
2019-05-10T08:27:28.124Z,99984.27
2019-05-10T08:32:34.976Z,99988.73
2019-05-10T08:35:16.293Z,99989.44
2019-05-10T08:37:43.330Z,99991.48
2019-05-10T08:40:19.746Z,99993.18
2019-05-10T08:42:54.423Z,99992.59
2019-05-10T08:45:22.689Z,99994.70
2019-05-10T08:48:00.883Z,99987.88
2019-05-10T08:50:43.880Z,99986.42
2019-05-10T08:53:04.360Z,99991.65
2019-05-10T08:55:34.320Z,99990.05
2019-05-10T08:58:06.132Z,99992.08
2019-05-10T09:00:49.613Z,99988.41
2019-05-10T09:03:18.041Z,99992.25
2019-05-10T09:05:47.202Z,99992.50
2019-05-10T09:08:20.234Z,99987.98
2019-05-10T09:10:52.974Z,99987.22
2019-05-10T09:13:28.699Z,99991.12
2019-05-10T09:15:58.571Z,99997.02
2019-05-10T09:18:30.331Z,99991.38
2019-05-10T09:21:08.587Z,99997.54
2019-05-10T09:23:35.423Z,99996.56
2019-05-10T09:26:10.557Z,99999.13
2019-05-10T09:28:42.118Z,99995.03
2019-05-10T09:31:22.015Z,100000.93
2019-05-10T09:33:49.747Z,100000.50
2019-05-10T09:36:23.093Z,100002.70
2019-05-10T09:38:54.875Z,99997.57
2019-05-10T09:41:27.836Z,99996.73
2019-05-10T09:44:02.893Z,100004.44
2019-05-10T09:46:35.434Z,99997.41
2019-05-10T09:49:15.794Z,99995.28
2019-05-10T09:51:45.259Z,100001.86
2019-05-10T09:54:23.252Z,100002.24
2019-05-10T09:56:54.005Z,100000.70
2019-05-10T09:59:27.754Z,100006.02
2019-05-10T10:01:59.120Z,100016.41
2019-05-10T10:04:31.631Z,100015.02
2019-05-10T10:07:04.419Z,100010.72
2019-05-10T10:09:42.438Z,100012.75
2019-05-10T10:12:10.398Z,100018.50
2019-05-10T10:14:43.502Z,100023.95
2019-05-10T10:17:18.431Z,100028.83
2019-05-10T10:19:49.709Z,100030.84
2019-05-10T10:22:21.439Z,100037.73
2019-05-10T10:24:55.208Z,100044.28
2019-05-10T10:27:34.191Z,100042.53
2019-05-10T10:30:00.111Z,100042.89
2019-05-10T10:32:37.614Z,100044.51
2019-05-10T10:35:13.320Z,100040.02
2019-05-10T10:37:44.557Z,100051.08
2019-05-10T10:40:18.331Z,100044.81
2019-05-10T10:42:50.704Z,100054.45
2019-05-10T10:45:22.574Z,100051.67
2019-05-10T10:47:57.130Z,100047.85
2019-05-10T10:50:27.971Z,100052.80
2019-05-10T10:52:59.707Z,100053.23
2019-05-10T10:55:36.621Z,100055.91
2019-05-10T10:58:07.182Z,100054.27
2019-05-10T11:00:39.255Z,100052.94
2019-05-10T11:03:11.115Z,100052.33
2019-05-10T11:05:42.867Z,100056.09
2019-05-10T11:08:14.616Z,100051.83
2019-05-10T11:10:46.361Z,100060.31
2019-05-10T11:13:40.505Z,100063.45
2019-05-10T11:16:09.646Z,100063.62
2019-05-10T11:18:35.445Z,100065.73
2019-05-10T11:21:07.205Z,100072.65
2019-05-10T11:23:41.954Z,100073.56
2019-05-10T11:26:13.530Z,100081.23
2019-05-10T11:28:45.262Z,100084.61
2019-05-10T11:31:17.019Z,100090.63
2019-05-10T11:33:56.013Z,100096.95
2019-05-10T11:36:22.465Z,100100.99
2019-05-10T11:38:58.533Z,100107.89
2019-05-10T11:41:31.251Z,100101.98
2019-05-10T11:44:05.610Z,100110.99
2019-05-10T11:46:37.239Z,100114.62
2019-05-10T11:49:10.688Z,100116.92
2019-05-10T11:51:47.933Z,100117.30
2019-05-10T11:54:16.974Z,100115.35
2019-05-10T11:56:58.495Z,100113.20
2019-05-10T11:59:33.812Z,100107.50
2019-05-10T12:02:09.187Z,100109.15
2019-05-10T12:04:42.550Z,100107.50
2019-05-10T12:07:12.966Z,100112.94
2019-05-10T12:09:45.078Z,100115.89
2019-05-10T12:12:16.817Z,100119.15
2019-05-10T12:14:48.726Z,100115.97
2019-05-10T12:17:24.062Z,100115.16
2019-05-10T12:19:56.398Z,100112.30
2019-05-10T12:22:32.070Z,100115.27
2019-05-10T12:25:23.321Z,100110.28
2019-05-10T12:27:44.287Z,100117.12
2019-05-10T12:30:11.488Z,100113.32
2019-05-10T12:32:55.736Z,100112.16
2019-05-10T12:35:21.502Z,100106.72
2019-05-10T12:37:54.418Z,100112.38
2019-05-10T12:40:26.143Z,100110.73
2019-05-10T12:42:57.891Z,100109.97
2019-05-10T12:45:31.371Z,100105.72
2019-05-10T12:48:02.908Z,100103.20
2019-05-10T12:50:34.740Z,100106.75
2019-05-10T12:53:14.034Z,100112.06
2019-05-10T12:55:40.328Z,100116.05
2019-05-10T12:58:12.072Z,100116.45
2019-05-10T13:00:46.525Z,100116.03
2019-05-10T13:03:19.378Z,100121.08
2019-05-10T13:05:52.954Z,100122.23
2019-05-10T13:08:24.012Z,100119.39
2019-05-10T13:10:55.876Z,100133.44
2019-05-10T13:13:30.083Z,100132.45
2019-05-10T13:16:03.689Z,100147.12
2019-05-10T13:18:49.736Z,100149.23
2019-05-10T13:23:42.559Z,100157.06
2019-05-10T13:26:14.399Z,100158.78
2019-05-10T13:28:46.143Z,100162.15
2019-05-10T13:31:17.919Z,100168.14
2019-05-10T13:33:49.657Z,100172.23
2019-05-10T13:36:21.411Z,100171.12
2019-05-10T13:38:56.120Z,100185.05
2019-05-10T13:41:27.989Z,100185.45
2019-05-10T13:44:05.042Z,100182.95
2019-05-10T13:46:33.062Z,100188.12
2019-05-10T13:49:04.886Z,100188.00
2019-05-10T13:51:36.516Z,100190.53
2019-05-10T13:54:08.258Z,100180.77
2019-05-10T13:56:45.202Z,100189.80
2019-05-10T13:59:49.065Z,100192.58
2019-05-10T14:02:31.947Z,100189.52
2019-05-10T14:04:54.645Z,100194.52
2019-05-10T14:07:26.395Z,100201.80
2019-05-10T14:09:58.129Z,100202.67
2019-05-10T14:12:29.960Z,100199.35
2019-05-10T14:15:08.279Z,100199.42
2019-05-10T14:17:35.394Z,100199.34
2019-05-10T14:20:19.739Z,100205.05
2019-05-10T14:22:48.363Z,100197.63
2019-05-10T14:25:17.157Z,100197.94
2019-05-10T14:27:49.365Z,100196.20
2019-05-10T14:30:21.205Z,100198.06
2019-05-10T14:32:52.959Z,100198.59
2019-05-10T14:35:24.710Z,100203.74
2019-05-10T14:38:07.512Z,100199.55
2019-05-10T14:40:30.779Z,100208.51
2019-05-10T14:43:02.779Z,100207.35
2019-05-10T14:45:34.526Z,100208.67
2019-05-10T14:48:06.252Z,100210.84
2019-05-10T14:50:38.006Z,100211.67
2019-05-10T14:53:13.601Z,100204.62
2019-05-10T14:55:45.520Z,100202.95
2019-05-10T14:58:18.505Z,100215.02
2019-05-10T15:00:51.762Z,100206.05
2019-05-10T15:03:25.232Z,100210.32
2019-05-10T15:06:01.565Z,100204.91
2019-05-10T15:08:34.321Z,100211.32
2019-05-10T15:11:07.397Z,100201.55
2019-05-10T15:13:39.423Z,100218.74
2019-05-10T15:16:26.241Z,100219.92
2019-05-10T15:18:50.442Z,100226.34
2019-05-10T15:21:22.182Z,100228.41
2019-05-10T15:24:00.774Z,100228.08
2019-05-10T15:26:43.227Z,100231.75
2019-05-10T15:29:22.070Z,100237.86
2019-05-10T15:31:55.585Z,100248.49
2019-05-10T15:34:28.125Z,100254.23
2019-05-10T15:37:09.201Z,100258.77
2019-05-10T15:39:38.596Z,100261.13
2019-05-10T15:42:10.334Z,100266.65
2019-05-10T15:44:42.104Z,100269.45
2019-05-10T15:47:20.639Z,100273.56
2019-05-10T15:49:47.081Z,100276.20
2019-05-10T15:52:23.330Z,100286.42
2019-05-10T15:54:53.286Z,100283.36
2019-05-10T15:57:25.428Z,100282.84
2019-05-10T15:59:59.181Z,100284.59
2019-05-10T16:02:30.796Z,100287.47
2019-05-10T16:05:02.572Z,100294.80
2019-05-10T16:07:35.953Z,100297.91
2019-05-10T16:10:08.248Z,100299.35
2019-05-10T16:12:43.113Z,100295.07
2019-05-10T16:15:19.937Z,100295.77
2019-05-10T16:17:46.850Z,100290.41
2019-05-10T16:20:18.730Z,100300.69
2019-05-10T16:22:50.457Z,100300.61
2019-05-10T16:25:22.223Z,100303.08
2019-05-10T16:27:53.948Z,100316.04
2019-05-10T16:30:25.714Z,100311.66
2019-05-10T16:32:57.467Z,100312.05
2019-05-10T16:35:38.323Z,100319.91
2019-05-10T16:38:02.745Z,100320.98
2019-05-10T16:40:34.603Z,100319.98
2019-05-10T16:43:06.797Z,100321.87
2019-05-10T16:45:39.927Z,100324.34
2019-05-10T16:48:11.677Z,100329.66
2019-05-10T16:50:43.437Z,100328.25
2019-05-10T16:53:15.192Z,100325.13
2019-05-10T16:55:46.963Z,100327.75
2019-05-10T16:58:22.134Z,100329.64
2019-05-10T17:00:52.052Z,100326.80
2019-05-10T17:03:23.806Z,100328.50
2019-05-10T17:05:58.644Z,100328.55
2019-05-10T17:08:30.601Z,100331.81
2019-05-10T17:11:09.611Z,100332.18
2019-05-10T17:13:40.998Z,100330.83
2019-05-10T17:16:11.662Z,100337.42
2019-05-10T17:18:50.023Z,100337.23
2019-05-10T17:21:19.033Z,100346.86
2019-05-10T17:23:51.958Z,100346.77
2019-05-10T17:26:23.703Z,100351.65
2019-05-10T17:28:56.707Z,100355.13
2019-05-10T17:31:28.468Z,100349.35
2019-05-10T17:34:00.224Z,100360.64
2019-05-10T17:36:31.978Z,100357.91
2019-05-10T17:39:05.090Z,100361.73
2019-05-10T17:41:36.764Z,100361.38
2019-05-10T17:44:08.487Z,100366.59
2019-05-10T17:46:40.875Z,100365.25
2019-05-10T17:49:12.631Z,100358.87
2019-05-10T17:51:44.408Z,100354.78
2019-05-10T17:54:17.491Z,100363.97
2019-05-10T17:56:49.151Z,100359.59
2019-05-10T17:59:20.952Z,100365.95
2019-05-10T18:01:52.735Z,100369.72
2019-05-10T18:04:24.503Z,100377.52
2019-05-10T18:06:56.143Z,100383.88
2019-05-10T18:09:28.093Z,100383.35
2019-05-10T18:11:59.748Z,100387.52
2019-05-10T18:14:31.318Z,100391.83
2019-05-10T18:17:02.887Z,100390.73
2019-05-10T18:19:35.861Z,100394.83
2019-05-10T18:22:07.650Z,100394.83
2019-05-10T18:24:42.138Z,100402.56
2019-05-10T18:27:14.044Z,100401.92
2019-05-10T18:29:45.718Z,100405.55
2019-05-10T18:32:17.504Z,100407.91
2019-05-10T18:34:50.608Z,100409.75
2019-05-10T18:37:23.367Z,100409.03
2019-05-10T18:39:55.470Z,100411.12
2019-05-10T18:42:27.954Z,100410.55
2019-05-10T18:44:59.976Z,100412.16
2019-05-10T18:47:33.391Z,100408.14
2019-05-10T18:50:06.897Z,100413.78
2019-05-10T18:52:38.552Z,100425.59
2019-05-10T18:55:10.709Z,100437.44
2019-05-10T18:57:45.306Z,100428.33
2019-05-10T19:00:22.920Z,100432.00
2019-05-10T19:02:55.212Z,100433.61
2019-05-10T19:05:31.520Z,100445.55
2019-05-10T19:08:05.320Z,100447.44
2019-05-10T19:10:37.853Z,100455.36
2019-05-10T19:13:09.838Z,100457.69
2019-05-10T19:15:46.271Z,100462.83
2019-05-10T19:18:17.687Z,100466.39
2019-05-10T19:20:53.486Z,100472.62
2019-05-10T19:23:25.789Z,100469.13
2019-05-10T19:25:58.824Z,100479.86
2019-05-10T19:28:30.606Z,100474.05
2019-05-10T19:31:03.576Z,100479.55
2019-05-10T19:33:38.085Z,100478.11
2019-05-10T19:36:13.053Z,100485.92
2019-05-10T19:38:42.530Z,100484.45
2019-05-10T19:41:14.322Z,100478.25
2019-05-10T19:43:49.900Z,100478.77
2019-05-10T19:46:19.902Z,100483.41
2019-05-10T19:48:51.662Z,100488.50
2019-05-10T19:51:23.481Z,100483.90
2019-05-10T19:53:55.214Z,100485.47
2019-05-10T19:56:30.201Z,100487.66
2019-05-10T19:59:05.438Z,100487.66
2019-05-10T20:01:34.515Z,100486.31
2019-05-10T20:04:09.361Z,100489.00
2019-05-10T20:06:41.048Z,100487.66
2019-05-10T20:09:13.812Z,100495.95
2019-05-10T20:11:45.477Z,100493.05
2019-05-10T20:14:17.429Z,100491.93
2019-05-10T20:16:53.240Z,100497.06
2019-05-10T20:19:24.203Z,100495.84
2019-05-10T20:21:56.219Z,100504.86
2019-05-10T20:24:27.982Z,100501.43
2019-05-10T20:27:00.144Z,100502.53
2019-05-10T20:29:37.087Z,100506.33
2019-05-10T20:32:09.943Z,100504.98
2019-05-10T20:34:41.789Z,100507.53
2019-05-10T20:37:15.045Z,100502.05
2019-05-10T20:39:46.820Z,100510.19
2019-05-10T20:42:20.599Z,100504.97
2019-05-10T20:45:06.182Z,100516.30
2019-05-10T20:47:25.524Z,100510.09
2019-05-10T20:49:58.459Z,100511.20
2019-05-10T20:52:30.451Z,100512.03
2019-05-10T20:55:06.457Z,100505.60
2019-05-10T20:57:39.035Z,100507.30
2019-05-10T21:00:13.062Z,100513.62
2019-05-10T21:02:45.167Z,100515.33
2019-05-10T21:05:17.039Z,100513.03
2019-05-10T21:07:48.783Z,100518.51
2019-05-10T21:10:20.553Z,100520.33
2019-05-10T21:12:52.304Z,100520.58
2019-05-10T21:15:24.058Z,100519.85
2019-05-10T21:17:55.819Z,100526.63
2019-05-10T21:20:27.609Z,100522.38
2019-05-10T21:22:59.343Z,100527.86
2019-05-10T21:25:31.067Z,100525.80
2019-05-10T21:28:02.822Z,100533.22
2019-05-10T21:30:37.534Z,100529.81
2019-05-10T21:33:09.409Z,100531.98
2019-05-10T21:35:41.139Z,100532.37
2019-05-10T21:38:13.912Z,100529.67
2019-05-10T21:40:45.687Z,100533.58
2019-05-10T21:43:17.423Z,100527.36
2019-05-10T21:45:49.185Z,100527.12
2019-05-10T21:48:20.859Z,100526.98
2019-05-10T21:50:52.610Z,100526.62
2019-05-10T21:53:24.361Z,100516.88
2019-05-10T21:55:56.210Z,100515.52
2019-05-10T21:58:27.978Z,100520.37
2019-05-10T22:00:59.729Z,100517.55
2019-05-10T22:03:32.675Z,100512.32
2019-05-10T22:06:04.775Z,100521.02
2019-05-10T22:08:48.799Z,100519.29
2019-05-10T22:11:11.687Z,100521.55
2019-05-10T22:13:43.444Z,100526.00
2019-05-10T22:16:15.203Z,100531.45
2019-05-10T22:18:48.975Z,100522.19
2019-05-10T22:21:25.526Z,100520.55
2019-05-10T22:23:57.484Z,100523.70
2019-05-10T22:26:31.312Z,100522.71
2019-05-10T22:29:03.158Z,100525.70
2019-05-10T22:31:34.931Z,100526.41
2019-05-10T22:34:06.677Z,100534.37
2019-05-10T22:36:38.416Z,100537.98
2019-05-10T22:39:10.180Z,100537.56
2019-05-10T22:41:41.913Z,100544.45
2019-05-10T22:44:13.661Z,100546.25
2019-05-10T22:46:45.424Z,100539.77
2019-05-10T22:49:17.165Z,100543.03
2019-05-10T22:51:49.004Z,100548.97
2019-05-10T22:54:20.740Z,100552.97
2019-05-10T22:56:52.486Z,100548.00
2019-05-10T22:59:24.134Z,100549.96
2019-05-10T23:01:55.979Z,100546.98
2019-05-10T23:04:27.723Z,100551.50
2019-05-10T23:06:59.572Z,100558.70
2019-05-10T23:09:31.613Z,100549.50
2019-05-10T23:12:03.368Z,100553.88
2019-05-10T23:14:35.144Z,100546.23
2019-05-10T23:17:07.181Z,100546.23
2019-05-10T23:19:38.915Z,100544.05
2019-05-10T23:22:10.648Z,100542.47
2019-05-10T23:24:42.504Z,100539.18
2019-05-10T23:27:14.240Z,100537.56
2019-05-10T23:29:45.973Z,100539.23
2019-05-10T23:32:17.910Z,100537.36
2019-05-10T23:34:49.752Z,100541.22
2019-05-10T23:37:21.613Z,100543.01
2019-05-10T23:39:53.322Z,100553.39
2019-05-10T23:42:25.055Z,100549.58
2019-05-10T23:44:56.795Z,100546.48
2019-05-10T23:47:28.527Z,100547.02
2019-05-10T23:50:00.363Z,100558.83
2019-05-10T23:52:32.097Z,100556.94
2019-05-10T23:55:04.973Z,100561.86
2019-05-10T23:57:38.372Z,100558.00
